.
WxDataArchive / Data Records for 2016-03-28
2016-03-27 March 2016 2016-03-29

Data Records for Monday, 28 March 2016

Time	Temp	Chill	HIndex	Humid	Dewpt	 Wind 	HiWind	WindDir	Rain 	Barom
-----	----	-----	------	-----	-----	------	------	-------	-----	-----
00:00	46.4	46.4	46.4	88	43.0	1	3	292	0.01	29.714 
00:05	46.2	46.2	46.2	88	42.8	1	3	292	0.00	29.714 
00:10	46.2	46.2	46.2	88	42.8	1	4	292	0.00	29.714 
00:15	46.2	46.2	46.2	89	43.1	0	2	292	0.00	29.695 
00:20	46.1	46.1	46.1	89	43.0	0	1	292	0.00	29.695 
00:25	46.1	46.1	46.1	90	43.3	0	1	292	0.01	29.695 
00:30	46.1	46.1	46.1	90	43.3	0	1	292	0.00	29.710 
00:35	46.1	46.1	46.1	90	43.3	0	1	292	0.00	29.710 
00:40	46.1	46.1	46.1	90	43.3	0	2	292	0.01	29.710 
00:45	46.0	46.0	46.0	91	43.5	0	0	---	0.02	29.685 
00:50	46.0	46.0	46.0	91	43.5	0	1	292	0.01	29.685 
00:55	46.0	46.0	46.0	91	43.5	0	2	292	0.00	29.685 
01:00	45.8	45.8	45.8	91	43.3	0	2	0	0.01	29.616 
01:05	46.0	46.0	46.0	92	43.8	1	2	338	0.00	29.616 
01:10	46.0	46.0	46.0	92	43.8	1	3	338	0.00	29.616 
01:15	46.0	46.0	46.0	92	43.8	2	4	248	0.00	29.693 
01:20	45.8	45.8	45.8	92	43.6	2	4	248	0.00	29.693 
01:25	45.7	43.9	45.7	92	43.5	4	6	270	0.00	29.693 
01:30	45.5	45.5	45.5	92	43.3	3	6	270	0.00	29.695 
01:35	45.2	42.6	45.2	92	43.0	5	12	270	0.00	29.695 
01:40	44.9	43.0	44.9	92	42.7	4	10	270	0.00	29.695 
01:45	44.9	43.0	44.9	92	42.7	4	6	270	0.00	29.698 
01:50	44.8	42.9	44.8	92	42.6	4	9	270	0.00	29.698 
01:55	44.6	41.9	44.6	91	42.1	5	12	270	0.00	29.698 
02:00	44.3	42.3	44.3	91	41.8	4	10	270	0.00	29.708 
02:05	44.3	44.3	44.3	90	41.6	3	7	270	0.00	29.708 
02:10	44.2	42.2	44.2	90	41.5	4	7	270	0.00	29.708 
02:15	44.2	42.2	44.2	89	41.2	4	6	270	0.00	29.709 
02:20	44.2	44.2	44.2	89	41.2	3	7	248	0.00	29.709 
02:25	44.1	42.1	44.1	89	41.1	4	7	270	0.00	29.709 
02:30	43.9	43.9	43.9	89	40.9	3	6	270	0.00	29.709 
02:35	43.8	41.7	43.8	89	40.8	4	10	270	0.00	29.709 
02:40	43.6	41.5	43.6	88	40.3	4	6	292	0.00	29.709 
02:45	43.5	41.4	43.5	88	40.2	4	9	270	0.00	29.712 
02:50	43.5	41.4	43.5	88	40.2	4	11	270	0.00	29.712 
02:55	43.3	41.1	43.3	87	39.7	4	9	270	0.00	29.712 
03:00	43.2	41.0	43.2	87	39.6	4	6	270	0.00	29.718 
03:05	43.1	43.1	43.1	87	39.5	2	5	248	0.00	29.718 
03:10	43.1	43.1	43.1	87	39.5	3	6	270	0.00	29.718 
03:15	43.1	43.1	43.1	87	39.5	3	7	270	0.00	29.719 
03:20	43.1	40.9	43.1	87	39.5	4	10	270	0.00	29.719 
03:25	43.1	40.9	43.1	87	39.5	4	7	270	0.00	29.719 
03:30	43.1	40.9	43.1	88	39.8	4	7	292	0.00	29.716 
03:35	43.1	43.1	43.1	88	39.8	3	6	270	0.00	29.716 
03:40	43.1	43.1	43.1	88	39.8	3	7	270	0.00	29.716 
03:45	43.1	43.1	43.1	88	39.8	3	5	248	0.00	29.720 
03:50	43.2	43.2	43.2	88	39.9	3	6	270	0.00	29.720 
03:55	43.2	41.0	43.2	88	39.9	4	7	270	0.00	29.720 
04:00	43.2	43.2	43.2	88	39.9	3	5	270	0.00	29.724 
04:05	43.3	43.3	43.3	88	40.0	3	6	270	0.00	29.724 
04:10	43.3	43.3	43.3	88	40.0	3	6	270	0.00	29.724 
04:15	43.5	41.4	43.5	88	40.2	4	10	270	0.00	29.724 
04:20	43.5	43.5	43.5	88	40.2	3	6	270	0.00	29.724 
04:25	43.6	41.5	43.6	87	40.0	4	7	292	0.00	29.724 
04:30	43.6	41.5	43.6	87	40.0	4	6	270	0.00	29.729 
04:35	43.8	40.9	43.8	87	40.2	5	10	270	0.00	29.729 
04:40	43.8	41.7	43.8	87	40.2	4	10	270	0.00	29.729 
04:45	43.8	43.8	43.8	87	40.2	3	6	270	0.00	29.733 
04:50	43.8	41.7	43.8	87	40.2	4	10	270	0.00	29.733 
04:55	43.8	43.8	43.8	87	40.2	3	6	292	0.00	29.733 
05:00	43.8	41.7	43.8	87	40.2	4	7	270	0.00	29.739 
05:05	43.8	40.9	43.8	87	40.2	5	8	270	0.00	29.739 
05:10	43.8	43.8	43.8	87	40.2	3	6	270	0.00	29.739 
05:15	43.9	41.8	43.9	86	40.0	4	7	270	0.00	29.744 
05:20	43.9	41.8	43.9	86	40.0	4	9	270	0.00	29.744 
05:25	43.9	41.8	43.9	86	40.0	4	7	270	0.00	29.744 
05:30	43.9	41.8	43.9	86	40.0	4	8	270	0.00	29.754 
05:35	43.9	41.1	43.9	86	40.0	5	10	270	0.00	29.754 
05:40	43.9	41.8	43.9	86	40.0	4	9	270	0.00	29.754 
05:45	43.9	41.8	43.9	86	40.0	4	7	270	0.00	29.759 
05:50	43.8	41.7	43.8	86	39.9	4	6	270	0.00	29.759 
05:55	43.8	40.9	43.8	85	39.6	5	9	292	0.00	29.759 
06:00	43.8	43.8	43.8	85	39.6	3	6	270	0.00	29.770 
06:05	43.8	40.9	43.8	85	39.6	5	9	270	0.00	29.770 
06:10	43.8	41.7	43.8	85	39.6	4	11	270	0.00	29.770 
06:15	43.6	43.6	43.6	85	39.4	3	6	270	0.00	29.779 
06:20	43.6	41.5	43.6	85	39.4	4	7	270	0.00	29.779 
06:25	43.5	43.5	43.5	85	39.3	3	6	292	0.00	29.779 
06:30	43.5	41.4	43.5	85	39.3	4	18	270	0.00	29.788 
06:35	43.5	41.4	43.5	85	39.3	4	9	292	0.00	29.788 
06:40	43.3	40.3	43.3	85	39.1	5	8	270	0.00	29.788 
06:45	43.2	41.0	43.2	86	39.3	4	8	270	0.00	29.794 
06:50	43.2	39.6	43.2	85	39.0	6	11	292	0.00	29.794 
06:55	43.2	43.2	43.2	85	39.0	3	7	270	0.00	29.794 
07:00	43.2	41.0	43.2	85	39.0	4	13	315	0.00	29.805 
07:05	43.2	41.0	43.2	84	38.7	4	8	270	0.00	29.805 
07:10	43.2	41.0	43.2	84	38.7	4	7	292	0.00	29.805 
07:15	43.2	40.2	43.2	84	38.7	5	10	270	0.00	29.818 
07:20	43.2	40.2	43.2	84	38.7	5	12	315	0.00	29.818 
07:25	43.1	40.9	43.1	84	38.6	4	7	292	0.00	29.818 
07:30	43.1	40.9	43.1	84	38.6	4	9	270	0.00	29.829 
07:35	43.1	40.1	43.1	84	38.6	5	13	292	0.00	29.829 
07:40	43.1	40.9	43.1	84	38.6	4	10	292	0.00	29.829 
07:45	43.1	40.9	43.1	84	38.6	4	12	315	0.00	29.840 
07:50	43.1	40.9	43.1	84	38.6	4	13	292	0.00	29.840 
07:55	43.1	43.1	43.1	84	38.6	3	12	292	0.00	29.840 
08:00	43.1	43.1	43.1	84	38.6	3	6	270	0.00	29.848 
08:05	42.9	40.7	42.9	84	38.4	4	11	292	0.00	29.848 
08:10	42.9	40.7	42.9	84	38.4	4	13	292	0.00	29.848 
08:15	42.9	42.9	42.9	84	38.4	3	9	315	0.00	29.862 
08:20	42.9	40.7	42.9	84	38.4	4	9	292	0.00	29.862 
08:25	42.9	39.9	42.9	83	38.1	5	12	270	0.00	29.862 
08:30	42.8	39.8	42.8	82	37.7	5	16	292	0.00	29.865 
08:35	42.8	39.8	42.8	81	37.4	5	9	292	0.00	29.865 
08:40	42.6	40.3	42.6	82	37.5	4	7	292	0.00	29.865 
08:45	42.6	40.3	42.6	82	37.5	4	9	292	0.00	29.878 
08:50	42.5	42.5	42.5	83	37.7	3	7	292	0.00	29.878 
08:55	42.5	40.2	42.5	83	37.7	4	9	292	0.00	29.878 
09:00	42.5	42.5	42.5	83	37.7	3	6	270	0.00	29.886 
09:05	42.3	40.0	42.3	83	37.5	4	10	292	0.00	29.886 
09:10	42.3	40.0	42.3	84	37.8	4	11	270	0.00	29.886 
09:15	42.3	42.3	42.3	84	37.8	3	7	292	0.00	29.896 
09:20	42.2	42.2	42.2	84	37.7	2	5	292	0.00	29.896 
09:25	42.2	42.2	42.2	84	37.7	3	6	292	0.00	29.896 
09:30	42.2	42.2	42.2	84	37.7	3	6	270	0.00	29.897 
09:35	42.3	42.3	42.3	84	37.8	2	6	270	0.00	29.897 
09:40	42.3	40.0	42.3	84	37.8	4	7	292	0.00	29.897 
09:45	42.3	40.0	42.3	83	37.5	4	7	270	0.00	29.901 
09:50	42.5	40.2	42.5	83	37.7	4	10	270	0.00	29.901 
09:55	42.5	40.2	42.5	82	37.4	4	6	270	0.00	29.901 
10:00	42.5	42.5	42.5	83	37.7	3	5	292	0.00	29.910 
10:05	42.5	40.2	42.5	83	37.7	4	7	292	0.00	29.910 
10:10	42.3	40.0	42.3	82	37.2	4	9	292	0.00	29.910 
10:15	42.3	40.0	42.3	81	36.9	4	11	270	0.00	29.922 
10:20	42.3	39.2	42.3	80	36.6	5	10	292	0.00	29.922 
10:25	42.3	40.0	42.3	81	36.9	4	13	292	0.00	29.922 
10:30	42.5	42.5	42.5	81	37.1	3	7	270	0.00	29.930 
10:35	42.5	40.2	42.5	81	37.1	4	7	315	0.00	29.930 
10:40	42.6	42.6	42.6	81	37.2	3	6	292	0.00	29.930 
10:45	42.6	42.6	42.6	81	37.2	3	5	270	0.00	29.937 
10:50	42.5	40.2	42.5	81	37.1	4	13	270	0.00	29.937 
10:55	42.5	40.2	42.5	81	37.1	4	10	292	0.00	29.937 
11:00	42.6	42.6	42.6	81	37.2	3	9	292	0.00	29.950 
11:05	42.6	42.6	42.6	81	37.2	3	7	270	0.00	29.950 
11:10	42.8	42.8	42.8	81	37.4	3	9	292	0.00	29.950 
11:15	42.8	40.6	42.8	81	37.4	4	10	292	0.00	29.955 
11:20	42.9	42.9	42.9	81	37.5	3	9	292	0.00	29.955 
11:25	43.1	43.1	43.1	81	37.7	3	6	270	0.00	29.955 
11:30	43.6	43.6	43.6	81	38.2	3	5	270	0.00	29.955 
11:35	44.1	44.1	44.1	80	38.3	3	7	292	0.00	29.955 
11:40	44.5	42.5	44.5	78	38.1	4	10	292	0.00	29.955 
11:45	44.8	42.9	44.8	77	38.0	4	7	270	0.00	29.964 
11:50	44.9	42.2	44.9	77	38.1	5	12	270	0.00	29.964 
11:55	45.1	43.2	45.1	75	37.7	4	7	270	0.00	29.964 
12:00	45.4	45.4	45.4	76	38.3	3	7	292	0.00	29.967 
12:05	45.4	45.4	45.4	76	38.3	3	6	292	0.00	29.967 
12:10	45.1	43.2	45.1	75	37.7	4	10	270	0.00	29.967 
12:15	45.2	43.3	45.2	74	37.4	4	9	270	0.00	29.969 
12:20	45.2	42.6	45.2	73	37.1	5	9	315	0.00	29.969 
12:25	45.2	43.3	45.2	73	37.1	4	15	292	0.00	29.969 
12:30	45.1	42.5	45.1	73	37.0	5	11	292	0.00	29.979 
12:35	44.9	43.0	44.9	73	36.8	4	11	292	0.00	29.979 
12:40	45.2	43.3	45.2	74	37.4	4	10	292	0.00	29.979 
12:45	45.5	43.7	45.5	73	37.4	4	6	270	0.00	29.979 
12:50	45.7	43.9	45.7	72	37.2	4	8	270	0.00	29.979 
12:55	45.4	43.6	45.4	72	36.9	4	12	292	0.00	29.979 
13:00	45.2	42.6	45.2	72	36.7	5	10	292	0.00	29.986 
13:05	45.2	43.3	45.2	73	37.1	4	10	270	0.00	29.986 
13:10	45.2	45.2	45.2	74	37.4	3	12	315	0.00	29.986 
13:15	45.4	45.4	45.4	73	37.3	3	5	292	0.00	29.996 
13:20	45.2	43.3	45.2	73	37.1	4	7	292	0.00	29.996 
13:25	45.1	45.1	45.1	73	37.0	3	10	292	0.00	29.996 
13:30	44.8	42.1	44.8	73	36.7	5	11	292	0.00	30.001 
13:35	44.8	44.8	44.8	74	37.0	3	13	292	0.00	30.001 
13:40	45.1	43.2	45.1	74	37.3	4	10	292	0.00	30.001 
13:45	45.1	43.2	45.1	74	37.3	4	12	270	0.00	30.006 
13:50	45.4	43.6	45.4	73	37.3	4	9	292	0.00	30.006 
13:55	46.0	46.0	46.0	73	37.8	3	10	292	0.00	30.006 
14:00	45.7	43.9	45.7	72	37.2	4	9	292	0.00	30.014 
14:05	45.7	45.7	45.7	72	37.2	3	5	292	0.00	30.014 
14:10	45.7	43.9	45.7	72	37.2	4	7	270	0.00	30.014 
14:15	45.7	43.9	45.7	71	36.8	4	10	270	0.00	30.022 
14:20	45.8	45.8	45.8	71	36.9	3	7	292	0.00	30.022 
14:25	46.0	46.0	46.0	71	37.1	3	7	270	0.00	30.022 
14:30	46.1	46.1	46.1	72	37.6	3	6	270	0.00	30.028 
14:35	46.2	44.5	46.2	71	37.3	4	10	338	0.00	30.028 
14:40	46.2	44.5	46.2	71	37.3	4	12	315	0.00	30.028 
14:45	46.4	44.7	46.4	71	37.5	4	11	270	0.00	30.032 
14:50	46.4	46.4	46.4	71	37.5	3	7	292	0.00	30.032 
14:55	46.4	44.7	46.4	70	37.2	4	11	315	0.00	30.032 
15:00	46.7	46.7	46.7	71	37.8	3	9	315	0.00	30.030 
15:05	46.8	45.2	46.8	70	37.5	4	7	292	0.00	30.030 
15:10	47.0	47.0	47.0	69	37.4	3	13	292	0.00	30.030 
15:15	47.0	47.0	47.0	68	37.0	3	6	292	0.00	30.033 
15:20	46.7	45.1	46.7	68	36.7	4	13	270	0.00	30.033 
15:25	46.7	45.1	46.7	69	37.1	4	11	270	0.00	30.033 
15:30	47.0	45.4	47.0	69	37.4	4	7	270	0.00	30.034 
15:35	47.0	45.4	47.0	69	37.4	4	7	270	0.00	30.034 
15:40	46.7	44.3	46.7	67	36.3	5	12	315	0.00	30.034 
15:45	46.5	44.8	46.5	67	36.1	4	7	270	0.00	30.039 
15:50	46.5	44.8	46.5	68	36.5	4	7	292	0.00	30.039 
15:55	46.7	45.1	46.7	69	37.1	4	9	292	0.00	30.039 
16:00	46.8	45.2	46.8	68	36.8	4	9	292	0.00	30.041 
16:05	47.0	44.7	47.0	67	36.6	5	13	292	0.00	30.041 
16:10	46.7	45.1	46.7	67	36.3	4	9	292	0.00	30.041 
16:15	46.5	46.5	46.5	67	36.1	3	6	270	0.00	30.047 
16:20	46.2	46.2	46.2	68	36.2	3	7	292	0.00	30.047 
16:25	46.1	46.1	46.1	69	36.5	3	7	292	0.00	30.047 
16:30	46.1	44.4	46.1	69	36.5	4	9	315	0.00	30.053 
16:35	46.1	46.1	46.1	69	36.5	3	6	315	0.00	30.053 
16:40	46.2	46.2	46.2	69	36.6	3	6	270	0.00	30.053 
16:45	46.4	46.4	46.4	68	36.4	3	8	338	0.00	30.060 
16:50	46.4	44.7	46.4	67	36.0	4	8	292	0.00	30.060 
16:55	46.2	46.2	46.2	68	36.2	3	7	270	0.00	30.060 
17:00	46.1	46.1	46.1	68	36.1	3	7	270	0.00	30.062 
17:05	46.1	46.1	46.1	69	36.5	2	5	315	0.00	30.062 
17:10	46.0	46.0	46.0	68	36.0	3	8	338	0.00	30.062 
17:15	45.7	43.9	45.7	67	35.4	4	9	292	0.00	30.063 
17:20	45.4	42.8	45.4	67	35.1	5	12	292	0.00	30.063 
17:25	45.4	45.4	45.4	67	35.1	3	9	270	0.00	30.063 
17:30	45.5	45.5	45.5	69	35.9	3	10	338	0.00	30.066 
17:35	46.1	46.1	46.1	66	35.4	3	6	315	0.00	30.066 
17:40	46.2	46.2	46.2	66	35.5	3	5	292	0.00	30.066 
17:45	45.8	44.0	45.8	65	34.7	4	10	292	0.00	30.074 
17:50	45.5	45.5	45.5	67	35.2	3	7	292	0.00	30.074 
17:55	45.2	43.3	45.2	67	34.9	4	10	292	0.00	30.074 
18:00	45.4	45.4	45.4	67	35.1	3	6	248	0.00	30.080 
18:05	45.8	44.0	45.8	66	35.1	4	9	292	0.00	30.080 
18:10	46.0	46.0	46.0	66	35.3	3	6	292	0.00	30.080 
18:15	45.7	43.9	45.7	65	34.6	4	7	292	0.00	30.084 
18:20	45.7	45.7	45.7	65	34.6	2	4	292	0.00	30.084 
18:25	45.4	45.4	45.4	65	34.3	2	6	292	0.00	30.084 
18:30	45.4	45.4	45.4	65	34.3	3	7	315	0.00	30.088 
18:35	45.4	45.4	45.4	65	34.3	3	6	315	0.00	30.088 
18:40	45.2	45.2	45.2	66	34.5	3	6	292	0.00	30.088 
18:45	45.2	45.2	45.2	67	34.9	2	6	315	0.00	30.095 
18:50	45.2	45.2	45.2	68	35.3	1	4	292	0.00	30.095 
18:55	45.1	45.1	45.1	66	34.4	2	5	248	0.00	30.095 
19:00	44.9	44.9	44.9	66	34.2	2	6	315	0.00	30.096 
19:05	44.8	44.8	44.8	68	34.9	1	4	292	0.00	30.096 
19:10	44.6	44.6	44.6	68	34.7	1	4	270	0.00	30.096 
19:15	44.5	44.5	44.5	68	34.6	2	5	292	0.00	30.099 
19:20	44.3	44.3	44.3	69	34.8	1	4	315	0.00	30.099 
19:25	44.3	44.3	44.3	72	35.9	1	4	315	0.00	30.099 
19:30	44.2	44.2	44.2	69	34.7	1	3	292	0.00	30.105 
19:35	43.9	43.9	43.9	69	34.4	0	2	315	0.00	30.105 
19:40	43.8	43.8	43.8	70	34.7	1	4	315	0.00	30.105 
19:45	43.5	43.5	43.5	70	34.4	1	3	292	0.00	30.113 
19:50	43.3	43.3	43.3	70	34.2	1	4	292	0.00	30.113 
19:55	43.2	43.2	43.2	71	34.4	1	4	292	0.00	30.113 
20:00	42.9	42.9	42.9	72	34.5	1	4	292	0.00	30.121 
20:05	42.8	42.8	42.8	72	34.4	1	4	270	0.00	30.121 
20:10	42.5	42.5	42.5	73	34.5	1	2	270	0.00	30.121 
20:15	42.3	42.3	42.3	73	34.3	0	2	270	0.00	30.124 
20:20	42.2	42.2	42.2	73	34.2	1	4	270	0.00	30.124 
20:25	41.9	41.9	41.9	74	34.2	1	3	292	0.00	30.124 
20:30	41.8	41.8	41.8	74	34.1	0	1	292	0.00	30.129 
20:35	41.6	41.6	41.6	75	34.3	1	2	292	0.00	30.129 
20:40	41.6	41.6	41.6	75	34.3	1	4	292	0.00	30.129 
20:45	41.6	41.6	41.6	75	34.3	1	3	292	0.00	30.131 
20:50	41.6	41.6	41.6	75	34.3	1	4	315	0.00	30.131 
20:55	41.6	41.6	41.6	75	34.3	0	2	315	0.00	30.131 
21:00	41.5	41.5	41.5	76	34.5	1	2	315	0.00	30.136 
21:05	41.3	41.3	41.3	76	34.3	0	2	315	0.00	30.136 
21:10	41.2	41.2	41.2	76	34.2	0	2	315	0.00	30.136 
21:15	41.1	41.1	41.1	77	34.4	0	1	315	0.00	30.143 
21:20	40.9	40.9	40.9	77	34.3	0	2	315	0.00	30.143 
21:25	40.6	40.6	40.6	77	34.0	0	1	315	0.00	30.143 
21:30	40.5	40.5	40.5	77	33.9	0	2	315	0.00	30.149 
21:35	40.2	40.2	40.2	78	33.9	0	1	315	0.00	30.149 
21:40	40.1	40.1	40.1	78	33.8	0	1	315	0.00	30.149 
21:45	39.8	39.8	39.8	78	33.5	0	1	315	0.00	30.154 
21:50	39.6	39.6	39.6	79	33.6	0	1	315	0.00	30.154 
21:55	39.5	39.5	39.5	79	33.5	0	2	315	0.00	30.154 
22:00	39.5	39.5	39.5	79	33.5	0	1	315	0.00	30.159 
22:05	39.3	39.3	39.3	79	33.3	0	1	315	0.00	30.159 
22:10	39.2	39.2	39.2	79	33.2	0	0	---	0.00	30.159 
22:15	38.9	38.9	38.9	80	33.3	0	0	---	0.00	30.163 
22:20	38.8	38.8	38.8	80	33.2	0	0	---	0.00	30.163 
22:25	38.5	38.5	38.5	80	32.9	0	0	---	0.00	30.163 
22:30	38.3	38.3	38.3	81	33.0	0	0	---	0.00	30.165 
22:35	38.2	38.2	38.2	81	32.9	0	0	---	0.00	30.165 
22:40	38.0	38.0	38.0	81	32.7	0	0	---	0.00	30.165 
22:45	37.8	37.8	37.8	81	32.5	0	0	---	0.00	30.166 
22:50	37.6	37.6	37.6	81	32.3	0	0	---	0.00	30.166 
22:55	37.3	37.3	37.3	82	32.3	0	0	---	0.00	30.166 
23:00	37.0	37.0	37.0	82	32.0	0	0	---	0.00	30.167 
23:05	36.8	36.8	36.8	82	31.8	0	0	---	0.00	30.167 
23:10	36.3	36.3	36.3	82	31.3	0	0	---	0.00	30.167 
23:15	36.0	36.0	36.0	82	31.0	0	0	---	0.00	30.166 
23:20	35.8	35.8	35.8	83	31.2	0	0	---	0.00	30.166 
23:25	35.6	35.6	35.6	83	31.0	0	0	---	0.00	30.166 
23:30	35.3	35.3	35.3	84	31.0	0	0	---	0.00	30.170 
23:35	35.2	35.2	35.2	84	30.9	0	0	---	0.00	30.170 
23:40	35.0	35.0	35.0	85	31.0	0	0	---	0.00	30.170 
23:45	35.0	35.0	35.0	85	31.0	0	0	---	0.00	30.175 
23:50	35.0	35.0	35.0	86	31.2	0	0	---	0.00	30.175 
23:55	35.0	35.0	35.0	86	31.2	0	0	---	0.00	30.175 

CoCoRaHS
IN-AL-39
A2 Web Hosting
Creative Commons License
GoDaddy
search engine by freefind advanced

loaded 2018-11-17 18:50:42 • last modified 2010-11-18 10:43:29
Privacy PolicyDisclaimer
• wx.awcolley.com is powered by PmWiki v.2002016 •
• all content (unless otherwise noted) © 2018 A W Colley